Time;durP1;ratioP1;P1;durP2;ratioP2;P2;SDS_P1;SDS_P2;PMS_P1;PMS_P2;Temp;Humidity;BMP_temperature;BMP_pressure;BME280_temperature;BME280_humidity;BME280_pressure;Samples;Min_cycle;Max_cycle;Signal;HPM_P1;HPM_P2
2023/05/19 00:00:43;;;;;;;;;18.00;18.00;;;;;-149.00;100.00;66333.84;5079564;28;45306;-77
2023/05/19 00:03:09;;;;;;;;;16.67;15.00;;;;;-149.00;100.00;66333.84;5079820;28;45339;-76
2023/05/19 00:05:44;;;;;;;;;15.00;12.00;;;;;-149.00;100.00;66333.84;5079592;28;45490;-77
2023/05/19 00:08:10;;;;;;;;;13.00;13.00;;;;;-149.00;100.00;66333.84;5079486;28;45656;-78
2023/05/19 00:10:37;;;;;;;;;16.67;16.67;;;;;-149.00;100.00;66333.84;5060970;28;48537;-76
2023/05/19 00:13:02;;;;;;;;;18.67;17.33;;;;;-149.00;100.00;66333.84;5079544;28;45311;-76
2023/05/19 00:15:28;;;;;;;;;19.00;18.67;;;;;-149.00;100.00;66333.84;5079626;28;45264;-76
2023/05/19 00:17:54;;;;;;;;;15.33;15.00;;;;;-149.00;100.00;66333.84;5079514;28;45179;-76
2023/05/19 00:20:20;;;;;;;;;17.67;16.33;;;;;-149.00;100.00;66333.84;5085460;27;45956;-77
2023/05/19 00:22:45;;;;;;;;;13.00;9.33;;;;;-149.00;100.00;66333.84;5066246;28;45806;-76
2023/05/19 00:25:11;;;;;;;;;17.33;16.67;;;;;-149.00;100.00;66333.84;5082906;28;45222;-76
2023/05/19 00:27:36;;;;;;;;;18.33;16.33;;;;;-149.00;100.00;66333.84;5083023;28;45447;-76
2023/05/19 00:30:01;;;;;;;;;14.33;12.33;;;;;-149.00;100.00;66333.84;5097455;27;45965;-77
2023/05/19 00:32:27;;;;;;;;;16.00;16.00;;;;;-149.00;100.00;66333.84;5103646;27;45292;-76
2023/05/19 00:34:52;;;;;;;;;14.67;14.67;;;;;-149.00;100.00;66333.84;5085042;27;45261;-77
2023/05/19 00:37:17;;;;;;;;;13.67;13.00;;;;;-149.00;100.00;66333.84;5083877;27;54121;-76
2023/05/19 00:39:43;;;;;;;;;15.33;14.67;;;;;-149.00;100.00;66333.84;5101754;27;45814;-76
2023/05/19 00:42:08;;;;;;;;;21.00;19.67;;;;;-149.00;100.00;66333.84;5102250;27;45412;-78
2023/05/19 00:44:38;;;;;;;;;15.67;15.67;;;;;-149.00;100.00;66333.84;5102619;27;45354;-76
2023/05/19 00:47:04;;;;;;;;;16.33;16.00;;;;;-149.00;100.00;66333.84;5102990;27;45321;-76
2023/05/19 00:49:29;;;;;;;;;16.00;14.67;;;;;-149.00;100.00;66333.84;5102873;27;45890;-76
2023/05/19 00:51:55;;;;;;;;;15.33;15.33;;;;;-149.00;100.00;66333.84;5084443;27;45329;-77
2023/05/19 00:54:21;;;;;;;;;14.67;13.00;;;;;-149.00;100.00;66333.84;5102784;27;45443;-76
2023/05/19 00:56:48;;;;;;;;;17.33;16.00;;;;;-149.00;100.00;66333.84;5102939;27;45292;-76
2023/05/19 00:59:14;;;;;;;;;17.00;16.67;;;;;-149.00;100.00;66333.84;5102800;27;45596;-76
2023/05/19 01:01:39;;;;;;;;;20.00;18.67;;;;;-149.00;100.00;66333.84;5102790;27;45271;-78
2023/05/19 01:04:08;;;;;;;;;10.67;8.33;;;;;-149.00;100.00;66333.84;5103036;27;45302;-76
2023/05/19 01:06:36;;;;;;;;;20.00;17.00;;;;;-149.00;100.00;66333.84;5084096;27;46360;-76
2023/05/19 01:09:02;;;;;;;;;16.33;15.67;;;;;-149.00;100.00;66333.84;5084063;27;47250;-75
2023/05/19 01:11:27;;;;;;;;;18.67;17.67;;;;;-149.00;100.00;66333.84;5102559;27;45301;-76
2023/05/19 01:13:53;;;;;;;;;15.00;15.00;;;;;-149.00;100.00;66333.84;5102813;27;45219;-76
2023/05/19 01:16:30;;;;;;;;;16.67;15.00;;;;;-149.00;100.00;66333.84;5102736;27;45348;-76
2023/05/19 01:19:05;;;;;;;;;24.00;21.00;;;;;-149.00;100.00;66333.84;5102562;27;45342;-76
2023/05/19 01:21:49;;;;;;;;;19.00;19.00;;;;;-149.00;100.00;66333.84;5083855;27;45350;-76
2023/05/19 01:24:46;;;;;;;;;17.67;17.67;;;;;-149.00;100.00;66333.84;5102516;27;45275;-76
2023/05/19 01:27:33;;;;;;;;;17.00;15.33;;;;;-149.00;100.00;66333.84;5084032;27;46523;-79
2023/05/19 01:30:22;;;;;;;;;18.67;18.67;;;;;-149.00;100.00;66333.84;5102380;27;45617;-78
2023/05/19 01:32:50;;;;;;;;;20.00;20.00;;;;;-149.00;100.00;66333.84;5101638;27;45157;-78
2023/05/19 01:35:15;;;;;;;;;15.67;15.67;;;;;-149.00;100.00;66333.84;5102227;27;45522;-78
2023/05/19 01:37:41;;;;;;;;;15.33;15.33;;;;;-149.00;100.00;66333.84;5102064;27;45294;-75
2023/05/19 01:40:07;;;;;;;;;20.33;20.00;;;;;-149.00;100.00;66333.84;5101552;27;45283;-79
2023/05/19 01:42:36;;;;;;;;;22.00;20.67;;;;;-149.00;100.00;66333.84;5083898;27;46205;-78
2023/05/19 01:45:04;;;;;;;;;21.33;19.67;;;;;-149.00;100.00;66333.84;5102253;27;45251;-78
2023/05/19 01:47:31;;;;;;;;;19.67;18.33;;;;;-149.00;100.00;66333.84;5101980;27;45309;-78
2023/05/19 01:49:56;;;;;;;;;19.33;18.33;;;;;-149.00;100.00;66333.84;5102041;27;45371;-78
2023/05/19 01:52:21;;;;;;;;;22.67;20.33;;;;;-149.00;100.00;66333.84;5083501;27;45284;-79
2023/05/19 01:54:47;;;;;;;;;21.00;20.00;;;;;-149.00;100.00;66333.84;5102004;27;45638;-76
2023/05/19 01:57:24;;;;;;;;;22.67;20.67;;;;;-149.00;100.00;66333.84;5083216;27;53283;-79
2023/05/19 01:59:59;;;;;;;;;24.00;24.00;;;;;-149.00;100.00;66333.84;5101918;27;45491;-76
2023/05/19 02:02:30;;;;;;;;;20.00;19.00;;;;;-149.00;100.00;66333.84;5083490;27;45609;-78
2023/05/19 02:05:01;;;;;;;;;24.00;23.00;;;;;-149.00;100.00;66333.84;5102056;27;45371;-77
2023/05/19 02:07:40;;;;;;;;;23.67;22.33;;;;;-149.00;100.00;66333.84;5083127;27;47556;-79
2023/05/19 02:10:11;;;;;;;;;28.33;22.33;;;;;-149.00;100.00;66333.84;5101525;27;46199;-78
2023/05/19 02:12:39;;;;;;;;;14.67;14.67;;;;;-149.00;100.00;66333.84;5101818;27;45160;-78
2023/05/19 02:15:14;;;;;;;;;24.33;22.33;;;;;-149.00;100.00;66333.84;5083349;27;45292;-79
2023/05/19 02:17:46;;;;;;;;;23.67;20.67;;;;;-149.00;100.00;66333.84;5083120;27;47166;-77
2023/05/19 02:20:12;;;;;;;;;20.00;19.67;;;;;-149.00;100.00;66333.84;5082972;27;47342;-78
2023/05/19 02:22:37;;;;;;;;;18.00;17.00;;;;;-149.00;100.00;66333.84;5101553;27;45206;-78
2023/05/19 02:25:03;;;;;;;;;22.00;22.00;;;;;-149.00;100.00;66333.84;5083047;27;45680;-78
2023/05/19 02:27:28;;;;;;;;;23.33;22.33;;;;;-149.00;100.00;66333.84;5101319;27;45513;-77
2023/05/19 02:29:54;;;;;;;;;21.67;21.67;;;;;-149.00;100.00;66333.84;5082810;27;47383;-78
2023/05/19 02:32:19;;;;;;;;;18.33;17.00;;;;;-149.00;100.00;66333.84;5101520;27;45273;-78
2023/05/19 02:34:47;;;;;;;;;17.33;16.33;;;;;-149.00;100.00;66333.84;5083044;27;45367;-78
2023/05/19 02:37:13;;;;;;;;;22.67;22.00;;;;;-149.00;100.00;66333.84;5100963;27;45464;-77
2023/05/19 02:39:39;;;;;;;;;19.00;17.00;;;;;-149.00;100.00;66333.84;5069799;28;48178;-78
2023/05/19 02:42:05;;;;;;;;;20.67;18.67;;;;;-149.00;100.00;66333.84;5080827;28;45259;-77
2023/05/19 02:44:30;;;;;;;;;22.67;22.67;;;;;-149.00;100.00;66333.84;5061443;28;45265;-78
2023/05/19 02:46:55;;;;;;;;;17.00;16.67;;;;;-149.00;100.00;66333.84;5080721;28;46917;-79
2023/05/19 02:49:21;;;;;;;;;20.67;19.00;;;;;-149.00;100.00;66333.84;5080429;28;50585;-77
2023/05/19 02:51:46;;;;;;;;;22.00;20.33;;;;;-149.00;100.00;66333.84;5080516;28;45232;-77
2023/05/19 02:54:11;;;;;;;;;20.67;18.67;;;;;-149.00;100.00;66333.84;5061937;28;53347;-78
2023/05/19 02:56:37;;;;;;;;;20.33;19.33;;;;;-149.00;100.00;66333.84;5062433;28;45929;-78
2023/05/19 02:59:02;;;;;;;;;18.67;18.67;;;;;-149.00;100.00;66333.84;5062046;28;47050;-78
2023/05/19 03:01:27;;;;;;;;;25.00;24.33;;;;;-149.00;100.00;66333.84;5080556;28;45213;-78
2023/05/19 03:03:53;;;;;;;;;26.67;23.00;;;;;-149.00;100.00;66333.84;5080366;28;50353;-77
2023/05/19 03:06:18;;;;;;;;;23.33;20.67;;;;;-149.00;100.00;66333.84;5080517;28;47124;-77
2023/05/19 03:08:43;;;;;;;;;21.67;20.00;;;;;-149.00;100.00;66333.84;5061697;28;53228;-78
2023/05/19 03:11:09;;;;;;;;;20.00;20.00;;;;;-149.00;100.00;66333.84;5080484;28;45347;-78
2023/05/19 03:13:34;;;;;;;;;23.33;20.33;;;;;-149.00;100.00;66333.84;5080698;28;45294;-77
2023/05/19 03:16:00;;;;;;;;;23.33;20.00;;;;;-149.00;100.00;66333.84;5080359;28;45560;-78
2023/05/19 03:18:26;;;;;;;;;21.33;20.00;;;;;-149.00;100.00;66333.84;5080353;28;45365;-78
2023/05/19 03:20:55;;;;;;;;;23.33;21.00;;;;;-149.00;100.00;66333.84;5061953;28;45658;-78
2023/05/19 03:23:21;;;;;;;;;26.00;23.67;;;;;-149.00;100.00;66333.84;5061855;28;45316;-78
2023/05/19 03:25:46;;;;;;;;;22.33;21.67;;;;;-149.00;100.00;66333.84;5080151;28;45307;-77
2023/05/19 03:28:12;;;;;;;;;25.33;23.00;;;;;-149.00;100.00;66333.84;5061774;28;48343;-77
2023/05/19 03:30:37;;;;;;;;;27.00;24.33;;;;;-149.00;100.00;66333.84;5079757;28;45298;-78
2023/05/19 03:33:04;;;;;;;;;20.67;20.00;;;;;-149.00;100.00;66333.84;5080054;28;47507;-77
2023/05/19 03:35:29;;;;;;;;;21.67;19.67;;;;;-149.00;100.00;66333.84;5079785;28;45389;-77
2023/05/19 03:37:54;;;;;;;;;20.00;20.00;;;;;-149.00;100.00;66333.84;5061473;28;48085;-77
2023/05/19 03:40:20;;;;;;;;;21.00;19.33;;;;;-149.00;100.00;66333.84;5075682;28;55205;-77
2023/05/19 03:42:45;;;;;;;;;20.33;20.33;;;;;-149.00;100.00;66333.84;5080183;28;45264;-78
2023/05/19 03:45:10;;;;;;;;;26.33;26.33;;;;;-149.00;100.00;66333.84;5078242;28;53691;-77
2023/05/19 03:47:35;;;;;;;;;24.00;21.67;;;;;-149.00;100.00;66333.84;5078319;28;50674;-78
2023/05/19 03:50:01;;;;;;;;;21.00;19.00;;;;;-149.00;100.00;66333.84;5078541;28;45935;-78
2023/05/19 03:52:26;;;;;;;;;21.67;19.67;;;;;-149.00;100.00;66333.84;5078553;28;45453;-77
2023/05/19 03:54:52;;;;;;;;;28.00;24.67;;;;;-149.00;100.00;66333.84;5081000;28;45257;-77
2023/05/19 03:57:17;;;;;;;;;21.33;21.33;;;;;-149.00;100.00;66333.84;5083441;28;45334;-78
2023/05/19 03:59:43;;;;;;;;;19.33;18.67;;;;;-149.00;100.00;66333.84;5083371;28;45294;-77
2023/05/19 04:02:08;;;;;;;;;23.00;21.67;;;;;-149.00;100.00;66333.84;5083743;28;45318;-78
2023/05/19 04:04:33;;;;;;;;;21.67;20.00;;;;;-149.00;100.00;66333.84;5083298;28;45636;-78
2023/05/19 04:06:59;;;;;;;;;22.00;21.00;;;;;-149.00;100.00;66333.84;5081834;28;48038;-77
2023/05/19 04:09:24;;;;;;;;;23.67;19.67;;;;;-149.00;100.00;66333.84;5081773;28;45306;-78
2023/05/19 04:11:49;;;;;;;;;23.00;21.67;;;;;-149.00;100.00;66333.84;5081915;28;45259;-78
2023/05/19 04:14:15;;;;;;;;;23.00;22.67;;;;;-149.00;100.00;66333.84;5080958;28;46200;-77
2023/05/19 04:16:40;;;;;;;;;29.33;25.00;;;;;-149.00;100.00;66333.84;5081709;28;47917;-77
2023/05/19 04:19:06;;;;;;;;;24.00;21.33;;;;;-149.00;100.00;66333.84;5083056;28;45310;-77
2023/05/19 04:21:31;;;;;;;;;23.33;23.33;;;;;-149.00;100.00;66333.84;5081786;28;45207;-77
2023/05/19 04:23:58;;;;;;;;;28.67;27.33;;;;;-149.00;100.00;66333.84;5082894;28;45161;-77
2023/05/19 04:26:25;;;;;;;;;22.33;20.67;;;;;-149.00;100.00;66333.84;5083109;28;45393;-77
2023/05/19 04:28:51;;;;;;;;;24.00;21.67;;;;;-149.00;100.00;66333.84;5081197;28;45373;-78
2023/05/19 04:31:16;;;;;;;;;21.67;19.33;;;;;-149.00;100.00;66333.84;5082344;28;45319;-77
2023/05/19 04:33:42;;;;;;;;;28.33;23.33;;;;;-149.00;100.00;66333.84;5079768;28;46196;-77
2023/05/19 04:36:09;;;;;;;;;29.33;22.33;;;;;-149.00;100.00;66333.84;5093076;27;47230;-77
2023/05/19 04:38:41;;;;;;;;;26.67;24.00;;;;;-149.00;100.00;66333.84;5085179;27;45294;-78
2023/05/19 04:41:09;;;;;;;;;26.67;22.00;;;;;-149.00;100.00;66333.84;5084266;27;45427;-77
2023/05/19 04:43:35;;;;;;;;;25.33;22.00;;;;;-149.00;100.00;66333.84;5102843;27;45527;-77
2023/05/19 04:46:00;;;;;;;;;24.67;23.67;;;;;-149.00;100.00;66333.84;5084649;27;47402;-77
2023/05/19 04:48:26;;;;;;;;;24.00;22.67;;;;;-149.00;100.00;66333.84;5103199;27;45145;-77
2023/05/19 04:50:51;;;;;;;;;22.33;20.33;;;;;-149.00;100.00;66333.84;5084730;27;45160;-78
2023/05/19 04:53:17;;;;;;;;;25.33;23.67;;;;;-149.00;100.00;66333.84;5084481;27;47173;-77
2023/05/19 04:55:43;;;;;;;;;25.00;25.00;;;;;-149.00;100.00;66333.84;5103021;27;45221;-78
2023/05/19 04:58:09;;;;;;;;;28.00;22.67;;;;;-149.00;100.00;66333.84;5103076;27;45373;-77
2023/05/19 05:00:35;;;;;;;;;23.67;23.00;;;;;-149.00;100.00;66333.84;5084589;27;45321;-77
2023/05/19 05:03:03;;;;;;;;;25.33;24.67;;;;;-149.00;100.00;66333.84;5102895;27;45612;-78
2023/05/19 05:05:29;;;;;;;;;25.00;21.67;;;;;-149.00;100.00;66333.84;5102294;27;45892;-79
2023/05/19 05:07:55;;;;;;;;;26.67;24.33;;;;;-149.00;100.00;66333.84;5102105;27;45229;-77
2023/05/19 05:10:20;;;;;;;;;31.00;25.33;;;;;-149.00;100.00;66333.84;5084339;27;45249;-77
2023/05/19 05:12:46;;;;;;;;;28.00;24.33;;;;;-149.00;100.00;66333.84;5102778;27;45512;-78
2023/05/19 05:15:11;;;;;;;;;25.67;24.33;;;;;-149.00;100.00;66333.84;5102920;27;46370;-79
2023/05/19 05:17:37;;;;;;;;;27.00;22.67;;;;;-149.00;100.00;66333.84;5102864;27;45257;-78
2023/05/19 05:20:04;;;;;;;;;21.00;18.00;;;;;-149.00;100.00;66333.84;5084315;27;45236;-77
2023/05/19 05:22:30;;;;;;;;;29.67;27.33;;;;;-149.00;100.00;66333.84;5084380;27;46505;-78
2023/05/19 05:24:56;;;;;;;;;26.33;26.33;;;;;-149.00;100.00;66333.84;5102353;27;45926;-77
2023/05/19 05:27:21;;;;;;;;;25.33;24.67;;;;;-149.00;100.00;66333.84;5102632;27;45336;-77
2023/05/19 05:29:46;;;;;;;;;25.67;23.00;;;;;-149.00;100.00;66333.84;5102489;27;45251;-78
2023/05/19 05:32:12;;;;;;;;;26.67;24.67;;;;;-149.00;100.00;66333.84;5084125;27;46237;-79
2023/05/19 05:34:39;;;;;;;;;22.00;20.33;;;;;-149.00;100.00;66333.84;5084181;27;48080;-77
2023/05/19 05:37:04;;;;;;;;;27.00;25.67;;;;;-149.00;100.00;66333.84;5102033;27;45165;-79
2023/05/19 05:39:30;;;;;;;;;23.33;22.00;;;;;-149.00;100.00;66333.84;5102030;27;45210;-78
2023/05/19 05:41:55;;;;;;;;;30.67;28.00;;;;;-149.00;100.00;66333.84;5084001;27;47011;-78
2023/05/19 05:44:21;;;;;;;;;31.00;29.00;;;;;-149.00;100.00;66333.84;5102234;27;45196;-77
2023/05/19 05:46:46;;;;;;;;;25.00;23.33;;;;;-149.00;100.00;66333.84;5083863;27;48860;-76
2023/05/19 05:49:12;;;;;;;;;32.00;28.67;;;;;-149.00;100.00;66333.84;5083820;27;45288;-78
2023/05/19 05:51:38;;;;;;;;;18.00;16.33;;;;;-149.00;100.00;66333.84;5101954;27;45149;-76
2023/05/19 05:54:05;;;;;;;;;26.00;25.00;;;;;-149.00;100.00;66333.84;5101891;27;46037;-77
2023/05/19 05:56:32;;;;;;;;;24.00;22.33;;;;;-149.00;100.00;66333.84;5102178;27;45223;-76
2023/05/19 05:58:58;;;;;;;;;29.67;27.00;;;;;-149.00;100.00;66333.84;5101972;27;45309;-77
2023/05/19 06:01:23;;;;;;;;;25.67;25.33;;;;;-149.00;100.00;66333.84;5101115;27;45322;-78
2023/05/19 06:03:48;;;;;;;;;25.33;23.67;;;;;-149.00;100.00;66333.84;5100393;27;45250;-77
2023/05/19 06:06:14;;;;;;;;;26.33;24.33;;;;;-149.00;100.00;66333.84;5100786;27;52825;-77
2023/05/19 06:08:39;;;;;;;;;25.00;23.00;;;;;-149.00;100.00;66333.84;5101914;27;45298;-77
2023/05/19 06:11:07;;;;;;;;;28.67;26.33;;;;;-149.00;100.00;66333.84;5083312;27;46702;-76
2023/05/19 06:13:37;;;;;;;;;28.33;26.33;;;;;-149.00;100.00;66333.84;5100497;27;46020;-78
2023/05/19 06:16:02;;;;;;;;;25.33;22.00;;;;;-149.00;100.00;66333.84;5097982;27;45398;-77
2023/05/19 06:18:28;;;;;;;;;28.67;25.33;;;;;-149.00;100.00;66333.84;5101431;27;45328;-77
2023/05/19 06:20:53;;;;;;;;;25.33;24.33;;;;;-149.00;100.00;66333.84;5101531;27;45345;-77
2023/05/19 06:23:19;;;;;;;;;28.00;27.00;;;;;-149.00;100.00;66333.84;5083061;27;47326;-78
2023/05/19 06:25:44;;;;;;;;;32.00;30.33;;;;;-149.00;100.00;66333.84;5101539;27;45172;-78
2023/05/19 06:28:10;;;;;;;;;20.67;20.00;;;;;-149.00;100.00;66333.84;5101794;27;45325;-77
2023/05/19 06:30:35;;;;;;;;;17.67;15.67;;;;;-149.00;100.00;66333.84;5102238;27;45227;-78
2023/05/19 06:33:02;;;;;;;;;29.67;26.67;;;;;-149.00;100.00;66333.84;5101841;27;45264;-75
2023/05/19 06:35:27;;;;;;;;;25.67;25.67;;;;;-149.00;100.00;66333.84;5068647;27;45281;-77
2023/05/19 06:37:54;;;;;;;;;29.67;28.00;;;;;-149.00;100.00;66333.84;5062351;28;45353;-76
2023/05/19 06:40:20;;;;;;;;;25.33;23.00;;;;;-149.00;100.00;66333.84;5061094;28;46960;-76
2023/05/19 06:42:45;;;;;;;;;25.33;23.33;;;;;-149.00;100.00;66333.84;5079757;28;46151;-76
2023/05/19 06:45:10;;;;;;;;;26.00;26.00;;;;;-149.00;100.00;66333.84;5080788;28;45316;-77
2023/05/19 06:47:35;;;;;;;;;28.67;25.33;;;;;-149.00;100.00;66333.84;5061757;28;49361;-76
2023/05/19 06:50:01;;;;;;;;;27.67;27.00;;;;;-149.00;100.00;66333.84;5080310;28;53617;-77
2023/05/19 06:52:26;;;;;;;;;28.67;27.00;;;;;-149.00;100.00;66333.84;5062428;28;47414;-76
2023/05/19 06:54:52;;;;;;;;;27.00;26.00;;;;;-149.00;100.00;66333.84;5080480;28;45346;-77
2023/05/19 06:57:17;;;;;;;;;23.67;22.67;;;;;-149.00;100.00;66333.84;5080938;28;45350;-77
2023/05/19 06:59:44;;;;;;;;;26.67;26.67;;;;;-149.00;100.00;66333.84;5080489;28;45590;-76
2023/05/19 07:02:09;;;;;;;;;23.00;21.00;;;;;-149.00;100.00;66333.84;5080625;28;45280;-76
2023/05/19 07:04:35;;;;;;;;;27.67;25.33;;;;;-149.00;100.00;66333.84;5062233;28;49340;-76
2023/05/19 07:07:00;;;;;;;;;21.00;18.00;;;;;-149.00;100.00;66333.84;5062317;28;45412;-76
2023/05/19 07:09:25;;;;;;;;;29.67;28.00;;;;;-149.00;100.00;66333.84;5061552;28;57595;-76
2023/05/19 07:11:51;;;;;;;;;29.33;26.67;;;;;-149.00;100.00;66333.84;5080592;28;46273;-76
2023/05/19 07:14:16;;;;;;;;;27.00;27.00;;;;;-149.00;100.00;66333.84;5080473;28;45267;-76
2023/05/19 07:16:41;;;;;;;;;26.00;24.00;;;;;-149.00;100.00;66333.84;5080343;28;45688;-76
2023/05/19 07:19:07;;;;;;;;;31.00;30.00;;;;;-149.00;100.00;66333.84;5080223;28;45284;-76
2023/05/19 07:21:32;;;;;;;;;28.00;26.67;;;;;-149.00;100.00;66333.84;5079943;28;51255;-76
2023/05/19 07:23:57;;;;;;;;;30.33;29.67;;;;;-149.00;100.00;66333.84;5061724;28;46026;-76
2023/05/19 07:26:23;;;;;;;;;22.00;20.67;;;;;-149.00;100.00;66333.84;5061847;28;50813;-76
2023/05/19 07:28:48;;;;;;;;;27.67;27.67;;;;;-149.00;100.00;66333.84;5084291;27;45407;-76
2023/05/19 07:31:13;;;;;;;;;27.67;21.00;;;;;-149.00;100.00;66333.84;5081886;27;47201;-77
2023/05/19 07:33:40;;;;;;;;;32.67;28.33;;;;;-149.00;100.00;66333.84;5100804;27;45327;-76
2023/05/19 07:36:05;;;;;;;;;25.00;23.67;;;;;-149.00;100.00;66333.84;5082059;27;45632;-76
2023/05/19 07:38:33;;;;;;;;;25.33;23.67;;;;;-149.00;100.00;66333.84;5100004;27;45469;-76
2023/05/19 07:40:59;;;;;;;;;19.00;19.00;;;;;-149.00;100.00;66333.84;5082050;27;47278;-77
2023/05/19 07:43:24;;;;;;;;;25.67;25.67;;;;;-149.00;100.00;66333.84;5081857;27;45234;-77
2023/05/19 07:45:49;;;;;;;;;22.00;21.67;;;;;-149.00;100.00;66333.84;5081929;27;51603;-76
2023/05/19 07:48:17;;;;;;;;;23.67;21.67;;;;;-149.00;100.00;66333.84;5081841;27;46438;-76
2023/05/19 07:50:42;;;;;;;;;24.00;23.33;;;;;-149.00;100.00;66333.84;5100216;27;45532;-76
2023/05/19 07:53:07;;;;;;;;;28.67;28.67;;;;;-149.00;100.00;66333.84;5100111;27;45284;-76
2023/05/19 07:55:33;;;;;;;;;23.33;22.67;;;;;-149.00;100.00;66333.84;5100527;27;45219;-77
2023/05/19 07:57:58;;;;;;;;;19.67;19.67;;;;;-149.00;100.00;66333.84;5100212;27;45240;-76
2023/05/19 08:00:24;;;;;;;;;20.67;20.33;;;;;-149.00;100.00;66333.84;5100029;27;53529;-76
2023/05/19 08:02:49;;;;;;;;;24.00;22.33;;;;;-149.00;100.00;66333.84;5081782;27;45431;-76
2023/05/19 08:05:14;;;;;;;;;27.67;25.67;;;;;-149.00;100.00;66333.84;5100294;27;45653;-76
2023/05/19 08:07:40;;;;;;;;;19.67;18.67;;;;;-149.00;100.00;66333.84;5100229;27;45255;-76
2023/05/19 08:10:05;;;;;;;;;22.00;22.00;;;;;-149.00;100.00;66333.84;5099871;27;46082;-77
2023/05/19 08:12:31;;;;;;;;;26.67;26.00;;;;;-149.00;100.00;66333.84;5100031;27;45295;-76
2023/05/19 08:14:56;;;;;;;;;19.33;18.33;;;;;-149.00;100.00;66333.84;5100194;27;45307;-76
2023/05/19 08:17:22;;;;;;;;;22.67;22.00;;;;;-149.00;100.00;66333.84;5100054;27;45472;-77
2023/05/19 08:19:47;;;;;;;;;22.67;21.33;;;;;-149.00;100.00;66333.84;5099867;27;45911;-77
2023/05/19 08:22:12;;;;;;;;;20.00;19.00;;;;;-149.00;100.00;66333.84;5099593;27;50526;-76
2023/05/19 08:24:38;;;;;;;;;21.00;21.00;;;;;-149.00;100.00;66333.84;5099914;27;45497;-76
2023/05/19 08:27:03;;;;;;;;;22.33;21.67;;;;;-149.00;100.00;66333.84;5081480;27;45836;-76
2023/05/19 08:29:29;;;;;;;;;21.67;20.33;;;;;-149.00;100.00;66333.84;5099603;27;46405;-77
2023/05/19 08:31:55;;;;;;;;;21.33;19.00;;;;;-149.00;100.00;66333.84;5099972;27;45260;-77
2023/05/19 08:34:21;;;;;;;;;20.00;19.00;;;;;-149.00;100.00;66333.84;5099983;27;45485;-77
2023/05/19 08:36:46;;;;;;;;;16.67;16.67;;;;;-149.00;100.00;66333.84;5099699;27;45449;-77
2023/05/19 08:39:12;;;;;;;;;17.00;16.67;;;;;-149.00;100.00;66333.84;5090472;27;45451;-76
2023/05/19 08:41:38;;;;;;;;;16.67;16.67;;;;;-149.00;100.00;66333.84;5082019;28;45247;-77
2023/05/19 08:44:04;;;;;;;;;17.67;17.67;;;;;-149.00;100.00;66333.84;5064647;28;45225;-76
2023/05/19 08:46:29;;;;;;;;;16.00;16.00;;;;;-149.00;100.00;66333.84;5082978;28;45462;-76
2023/05/19 08:49:03;;;;;;;;;18.00;16.33;;;;;-149.00;100.00;66333.84;5064308;28;47115;-77
2023/05/19 08:51:28;;;;;;;;;17.33;16.33;;;;;-149.00;100.00;66333.84;5064271;28;45234;-77
2023/05/19 08:54:03;;;;;;;;;16.33;16.00;;;;;-149.00;100.00;66333.84;5064246;28;45377;-77
2023/05/19 08:56:30;;;;;;;;;19.33;15.00;;;;;-149.00;100.00;66333.84;5082627;28;45224;-76
2023/05/19 08:58:59;;;;;;;;;14.67;12.67;;;;;-149.00;100.00;66333.84;5082425;28;45367;-76
2023/05/19 09:01:27;;;;;;;;;13.67;13.33;;;;;-149.00;100.00;66333.84;5082517;28;45265;-76
2023/05/19 09:03:53;;;;;;;;;15.00;15.00;;;;;-149.00;100.00;66333.84;5064313;28;45392;-76
2023/05/19 09:06:19;;;;;;;;;14.33;13.67;;;;;-149.00;100.00;66333.84;5082464;28;45500;-76
2023/05/19 09:08:45;;;;;;;;;18.67;18.00;;;;;-149.00;100.00;66333.84;5063823;28;48095;-76
2023/05/19 09:11:11;;;;;;;;;16.33;15.00;;;;;-149.00;100.00;66333.84;5082475;28;45339;-76
2023/05/19 09:13:37;;;;;;;;;18.00;15.67;;;;;-149.00;100.00;66333.84;5082492;28;45250;-77
2023/05/19 09:16:02;;;;;;;;;17.67;16.67;;;;;-149.00;100.00;66333.84;5082364;28;45469;-76
2023/05/19 09:18:28;;;;;;;;;18.00;16.67;;;;;-149.00;100.00;66333.84;5063778;28;47311;-77
2023/05/19 09:20:59;;;;;;;;;15.00;13.67;;;;;-149.00;100.00;66333.84;5082207;28;45226;-76
2023/05/19 09:23:31;;;;;;;;;16.67;15.67;;;;;-149.00;100.00;66333.84;5082124;28;45384;-76
2023/05/19 09:25:56;;;;;;;;;12.33;12.33;;;;;-149.00;100.00;66333.84;5082084;28;45470;-76
2023/05/19 09:28:31;;;;;;;;;12.67;12.67;;;;;-149.00;100.00;66333.84;5081908;28;45474;-76
2023/05/19 09:31:07;;;;;;;;;15.33;14.67;;;;;-149.00;100.00;66333.84;5063998;28;46197;-77
2023/05/19 09:33:35;;;;;;;;;15.00;15.00;;;;;-149.00;100.00;66333.84;5082233;28;45282;-76
2023/05/19 09:36:00;;;;;;;;;15.33;15.33;;;;;-149.00;100.00;66333.84;5081622;28;45314;-77
2023/05/19 09:38:26;;;;;;;;;14.33;14.33;;;;;-149.00;100.00;66333.84;5083803;27;46023;-77
2023/05/19 09:40:55;;;;;;;;;15.00;15.00;;;;;-149.00;100.00;66333.84;5102404;27;45394;-76
2023/05/19 09:43:20;;;;;;;;;11.00;10.00;;;;;-149.00;100.00;66333.84;5102565;27;45162;-77
2023/05/19 09:45:46;;;;;;;;;14.67;13.67;;;;;-149.00;100.00;66333.84;5102436;27;45207;-77
2023/05/19 09:48:13;;;;;;;;;10.00;8.67;;;;;-149.00;100.00;66333.84;5102451;27;45459;-73
2023/05/19 09:50:39;;;;;;;;;14.67;14.67;;;;;-149.00;100.00;66333.84;5083965;27;45169;-76
2023/05/19 09:53:04;;;;;;;;;17.33;16.67;;;;;-149.00;100.00;66333.84;5101498;27;45334;-76
2023/05/19 09:55:31;;;;;;;;;16.33;15.33;;;;;-149.00;100.00;66333.84;5083390;27;54819;-77
2023/05/19 09:57:56;;;;;;;;;17.67;15.00;;;;;-149.00;100.00;66333.84;5083486;27;48432;-76
2023/05/19 10:00:22;;;;;;;;;16.67;15.67;;;;;-149.00;100.00;66333.84;5102085;27;45269;-77
2023/05/19 10:02:49;;;;;;;;;16.00;13.67;;;;;-149.00;100.00;66333.84;5102251;27;45325;-76
2023/05/19 10:05:18;;;;;;;;;13.33;13.00;;;;;-149.00;100.00;66333.84;5101826;27;45538;-76
2023/05/19 10:07:47;;;;;;;;;17.00;16.67;;;;;-149.00;100.00;66333.84;5101995;27;46174;-77
2023/05/19 10:10:13;;;;;;;;;14.33;14.33;;;;;-149.00;100.00;66333.84;5083178;27;45269;-77
2023/05/19 10:12:39;;;;;;;;;13.67;13.67;;;;;-149.00;100.00;66333.84;5102071;27;45310;-77
2023/05/19 10:15:12;;;;;;;;;16.67;16.00;;;;;-149.00;100.00;66333.84;5083295;27;46014;-76
2023/05/19 10:17:42;;;;;;;;;25.00;23.00;;;;;-149.00;100.00;66333.84;5083393;27;47511;-76
2023/05/19 10:20:13;;;;;;;;;17.00;15.67;;;;;-149.00;100.00;66333.84;5083185;27;46357;-76
2023/05/19 10:22:39;;;;;;;;;13.67;13.00;;;;;-149.00;100.00;66333.84;5083476;27;45272;-76
2023/05/19 10:25:06;;;;;;;;;18.67;17.00;;;;;-149.00;100.00;66333.84;5101461;27;45599;-76
2023/05/19 10:27:35;;;;;;;;;11.67;11.67;;;;;-149.00;100.00;66333.84;5101559;27;46066;-76
2023/05/19 10:30:08;;;;;;;;;16.00;15.00;;;;;-149.00;100.00;66333.84;5101287;27;45348;-76
2023/05/19 10:32:36;;;;;;;;;28.00;26.33;;;;;-149.00;100.00;66333.84;5083234;27;45264;-76
2023/05/19 10:35:22;;;;;;;;;13.33;12.33;;;;;-149.00;100.00;66333.84;5101496;27;45435;-76
2023/05/19 10:38:08;;;;;;;;;11.67;11.00;;;;;-149.00;100.00;66333.84;5101626;27;45347;-76
2023/05/19 10:40:39;;;;;;;;;12.00;11.33;;;;;-149.00;100.00;66333.84;5080922;27;45352;-76
2023/05/19 10:43:44;;;;;;;;;14.67;14.67;;;;;-149.00;100.00;66333.84;5081136;28;45364;-76
2023/05/19 10:46:10;;;;;;;;;10.00;10.00;;;;;-149.00;100.00;66333.84;5062527;28;45338;-77
2023/05/19 10:48:35;;;;;;;;;16.33;15.00;;;;;-149.00;100.00;66333.84;5062500;28;47334;-77
2023/05/19 10:51:01;;;;;;;;;11.33;9.00;;;;;-149.00;100.00;66333.84;5080732;28;45288;-77
2023/05/19 10:53:33;;;;;;;;;14.67;14.67;;;;;-149.00;100.00;66333.84;5080774;28;45334;-77